createdAt,value
2022-12-22T00:02:36.111Z,150535.34
2022-12-22T00:05:25.269Z,150517.66
2022-12-22T00:08:09.410Z,150534.06
2022-12-22T00:10:54.305Z,150542.94
2022-12-22T00:13:38.633Z,150520.19
2022-12-22T00:16:23.117Z,150539.13
2022-12-22T00:19:07.579Z,150540.38
2022-12-22T00:21:52.052Z,150535.34
2022-12-22T00:24:36.312Z,150544.19
2022-12-22T00:27:20.825Z,150541.63
2022-12-22T00:30:05.148Z,150569.44
2022-12-22T00:32:56.092Z,150537.84
2022-12-22T00:35:43.416Z,150537.84
2022-12-22T00:38:38.997Z,150542.94
2022-12-22T00:41:24.944Z,150563.13
2022-12-22T00:44:09.155Z,150574.47
2022-12-22T00:46:57.383Z,150551.75
2022-12-22T00:49:44.093Z,150547.97
2022-12-22T00:52:29.518Z,150568.19
2022-12-22T00:55:13.850Z,150558.06
2022-12-22T00:58:00.372Z,150564.41
2022-12-22T01:00:44.863Z,150565.66
2022-12-22T01:03:29.941Z,150561.88
2022-12-22T01:06:17.669Z,150578.28
2022-12-22T01:09:02.116Z,150558.06
2022-12-22T01:11:46.522Z,150561.88
2022-12-22T01:14:32.042Z,150565.66
2022-12-22T01:17:16.892Z,150559.31
2022-12-22T01:20:01.284Z,150547.97
2022-12-22T01:22:46.810Z,150554.28
2022-12-22T01:25:33.917Z,150570.69
2022-12-22T01:28:18.404Z,150577.00
2022-12-22T01:31:03.318Z,150580.81
2022-12-22T01:33:48.221Z,150599.75
2022-12-22T01:36:33.306Z,150593.41
2022-12-22T01:39:17.585Z,150593.41
2022-12-22T01:42:02.512Z,150578.28
2022-12-22T01:44:46.820Z,150590.88
2022-12-22T01:47:57.439Z,150608.56
2022-12-22T01:50:54.083Z,150608.56
2022-12-22T01:53:45.053Z,150606.06
2022-12-22T01:56:29.826Z,150590.88
2022-12-22T01:59:17.705Z,150599.75
2022-12-22T02:02:02.342Z,150608.56
2022-12-22T02:05:00.423Z,150595.97
2022-12-22T02:08:09.852Z,150612.34
2022-12-22T02:11:23.712Z,150609.81
2022-12-22T02:14:31.912Z,150627.50
2022-12-22T02:17:19.269Z,150623.72
2022-12-22T02:20:49.614Z,150621.22
2022-12-22T02:23:51.364Z,150608.56
2022-12-22T02:26:54.138Z,150621.22
2022-12-22T02:29:47.243Z,150635.13
2022-12-22T02:32:32.170Z,150655.31
2022-12-22T02:35:16.468Z,150635.13
2022-12-22T02:38:15.960Z,150631.28
2022-12-22T02:41:41.163Z,150637.63
2022-12-22T02:44:53.089Z,150660.34
2022-12-22T02:47:56.366Z,150652.78
2022-12-22T02:50:52.481Z,150645.19
2022-12-22T02:53:38.751Z,150657.84
2022-12-22T02:56:26.415Z,150667.97
2022-12-22T02:59:11.705Z,150659.09
2022-12-22T03:02:02.603Z,150670.47
2022-12-22T03:04:47.482Z,150676.78
2022-12-22T03:07:31.910Z,150666.66
2022-12-22T03:10:16.409Z,150661.59
2022-12-22T03:13:01.200Z,150688.16
2022-12-22T03:15:45.565Z,150686.91
2022-12-22T03:18:30.803Z,150689.41
2022-12-22T03:21:16.255Z,150690.69
2022-12-22T03:24:01.053Z,150704.59
2022-12-22T03:26:27.292Z,150708.38
2022-12-22T03:28:53.111Z,150699.50
2022-12-22T03:31:19.008Z,150700.75
2022-12-22T03:33:44.838Z,150673.00
2022-12-22T03:36:10.678Z,150705.84
2022-12-22T03:38:36.698Z,150710.88
2022-12-22T03:41:03.315Z,150688.16
2022-12-22T03:43:48.577Z,150704.59
2022-12-22T03:46:31.793Z,150702.03
2022-12-22T03:49:11.535Z,150693.19
2022-12-22T03:51:46.879Z,150702.03
2022-12-22T03:54:18.097Z,150705.84
2022-12-22T03:56:43.856Z,150688.16
2022-12-22T03:59:10.615Z,150695.72
2022-12-22T04:01:40.053Z,150699.50
2022-12-22T04:04:06.038Z,150712.16
2022-12-22T04:06:31.809Z,150691.94
2022-12-22T04:08:57.573Z,150712.16
2022-12-22T04:11:41.706Z,150704.59
2022-12-22T04:14:07.507Z,150694.47
2022-12-22T04:16:33.541Z,150690.69
2022-12-22T04:18:59.821Z,150713.41
2022-12-22T04:21:25.726Z,150689.41
2022-12-22T04:23:51.606Z,150684.34
2022-12-22T04:26:19.248Z,150709.63
2022-12-22T04:28:45.219Z,150702.03
2022-12-22T04:31:11.189Z,150700.75
2022-12-22T04:33:37.098Z,150722.28
2022-12-22T04:36:03.108Z,150690.69
2022-12-22T04:38:28.934Z,150699.50
2022-12-22T04:40:54.744Z,150722.28
2022-12-22T04:43:20.500Z,150710.88
2022-12-22T04:45:46.343Z,150708.38
2022-12-22T04:48:12.184Z,150703.28
2022-12-22T04:50:38.695Z,150708.38
2022-12-22T04:53:04.563Z,150709.63
2022-12-22T04:55:30.332Z,150710.88
2022-12-22T04:57:56.147Z,150722.28
2022-12-22T05:00:22.154Z,150696.97
2022-12-22T05:02:48.035Z,150708.38
2022-12-22T05:05:14.007Z,150695.72
2022-12-22T05:07:39.891Z,150698.25
2022-12-22T05:10:06.267Z,150705.84
2022-12-22T05:12:50.556Z,150702.03
2022-12-22T05:15:16.460Z,150710.88
2022-12-22T05:17:42.276Z,150715.94
2022-12-22T05:20:08.605Z,150712.16
2022-12-22T05:22:34.367Z,150702.03
2022-12-22T05:25:00.153Z,150695.72
2022-12-22T05:27:25.970Z,150691.94
2022-12-22T05:29:51.795Z,150702.03
2022-12-22T05:32:17.604Z,150707.09
2022-12-22T05:34:43.408Z,150714.66
2022-12-22T05:37:09.175Z,150729.81
2022-12-22T05:39:34.961Z,150743.75
2022-12-22T05:42:00.813Z,150728.56
2022-12-22T05:44:26.612Z,150726.06
2022-12-22T05:46:52.527Z,150732.34
2022-12-22T05:49:18.746Z,150742.47
2022-12-22T05:51:45.214Z,150731.09
2022-12-22T05:54:11.417Z,150733.59
2022-12-22T05:56:37.261Z,150746.25
2022-12-22T05:59:03.405Z,150752.56
2022-12-22T06:01:29.328Z,150746.25
2022-12-22T06:04:00.094Z,150756.34
2022-12-22T06:06:26.564Z,150753.81
2022-12-22T06:08:52.421Z,150760.16
2022-12-22T06:11:18.581Z,150756.34
2022-12-22T06:13:45.167Z,150763.94
2022-12-22T06:16:11.558Z,150766.47
2022-12-22T06:18:37.587Z,150767.72
2022-12-22T06:21:03.657Z,150771.50
2022-12-22T06:23:29.645Z,150772.75
2022-12-22T06:26:00.805Z,150774.03
2022-12-22T06:28:27.878Z,150774.03
2022-12-22T06:30:54.620Z,150775.28
2022-12-22T06:33:20.988Z,150777.84
2022-12-22T06:35:50.713Z,150780.38
2022-12-22T06:38:19.702Z,150774.03
2022-12-22T06:40:46.776Z,150765.19
2022-12-22T06:43:12.581Z,150781.63
2022-12-22T06:45:42.686Z,150777.84
2022-12-22T06:48:10.222Z,150790.47
2022-12-22T06:50:36.081Z,150795.53
2022-12-22T06:53:02.682Z,150792.97
2022-12-22T06:55:28.602Z,150796.81
2022-12-22T06:57:54.539Z,150792.97
2022-12-22T07:00:20.888Z,150789.19
2022-12-22T07:02:46.832Z,150787.94
2022-12-22T07:05:14.830Z,150808.16
2022-12-22T07:07:41.097Z,150795.53
2022-12-22T07:10:07.526Z,150800.59
2022-12-22T07:12:33.683Z,150785.41
2022-12-22T07:14:59.530Z,150780.38
2022-12-22T07:17:25.508Z,150791.72
2022-12-22T07:19:51.306Z,150786.69
2022-12-22T07:22:17.093Z,150790.47
2022-12-22T07:24:42.900Z,150789.19
2022-12-22T07:27:09.473Z,150790.47
2022-12-22T07:29:35.864Z,150794.28
2022-12-22T07:32:02.655Z,150785.41
2022-12-22T07:34:28.542Z,150768.97
2022-12-22T07:36:54.404Z,150790.47
2022-12-22T07:39:20.265Z,150785.41
2022-12-22T07:42:04.564Z,150772.75
2022-12-22T07:44:30.364Z,150758.91
2022-12-22T07:46:56.219Z,150746.25
2022-12-22T07:49:40.937Z,150747.50
2022-12-22T07:52:06.710Z,150782.91
2022-12-22T07:54:39.616Z,150761.44
2022-12-22T07:57:07.347Z,150732.34
2022-12-22T07:59:33.117Z,150720.97
2022-12-22T08:01:59.030Z,150760.16
2022-12-22T08:04:25.271Z,150736.13
2022-12-22T08:06:51.249Z,150717.19
2022-12-22T08:09:18.937Z,150734.88
2022-12-22T08:11:44.843Z,150743.75
2022-12-22T08:14:10.657Z,150724.78
2022-12-22T08:16:36.629Z,150727.31
2022-12-22T08:19:02.455Z,150714.66
2022-12-22T08:21:28.361Z,150729.81
2022-12-22T08:23:54.746Z,150723.53
2022-12-22T08:26:35.472Z,150708.38
2022-12-22T08:29:16.014Z,150717.19
2022-12-22T08:31:42.356Z,150737.38
2022-12-22T08:34:12.048Z,150727.31
2022-12-22T08:36:41.097Z,150718.44
2022-12-22T08:39:07.200Z,150753.81
2022-12-22T08:41:49.343Z,150731.09
2022-12-22T08:44:16.300Z,150747.50
2022-12-22T08:46:42.173Z,150722.28
2022-12-22T08:49:08.004Z,150718.44
2022-12-22T08:51:33.954Z,150745.00
2022-12-22T08:54:05.119Z,150724.78
2022-12-22T08:56:32.001Z,150748.78
2022-12-22T08:58:57.863Z,150751.28
2022-12-22T09:01:23.820Z,150750.03
2022-12-22T09:03:51.228Z,150768.97
2022-12-22T09:06:20.612Z,150796.81
2022-12-22T09:08:57.327Z,150770.25
2022-12-22T09:11:24.110Z,150753.81
2022-12-22T09:13:52.430Z,150747.50
2022-12-22T09:16:19.591Z,150756.34
2022-12-22T09:18:45.526Z,150770.25
2022-12-22T09:21:11.447Z,150768.97
2022-12-22T09:23:37.314Z,150760.16
2022-12-22T09:26:11.150Z,150762.69
2022-12-22T09:28:37.420Z,150757.66
2022-12-22T09:31:04.424Z,150772.75
2022-12-22T09:33:30.929Z,150772.75
2022-12-22T09:35:57.277Z,150752.56
2022-12-22T09:38:27.255Z,150752.56
2022-12-22T09:40:56.728Z,150767.72
2022-12-22T09:43:29.118Z,150762.69
2022-12-22T09:45:57.575Z,150760.16
2022-12-22T09:48:26.872Z,150751.28
2022-12-22T09:50:52.660Z,150755.06
2022-12-22T09:53:22.938Z,150745.00
2022-12-22T09:55:50.747Z,150751.28
2022-12-22T09:58:28.919Z,150766.47
2022-12-22T10:01:14.899Z,150757.66
2022-12-22T10:03:45.940Z,150741.22
2022-12-22T10:06:15.472Z,150748.78
2022-12-22T10:08:41.640Z,150758.91
2022-12-22T10:11:12.684Z,150722.28
2022-12-22T10:13:38.561Z,150728.56
2022-12-22T10:16:18.138Z,150708.38
2022-12-22T10:19:03.334Z,150718.44
2022-12-22T10:21:30.383Z,150745.00
2022-12-22T10:23:56.311Z,150745.00
2022-12-22T10:26:32.132Z,150728.56
2022-12-22T10:29:06.044Z,150723.53
2022-12-22T10:31:34.846Z,150736.13
2022-12-22T10:34:15.783Z,150734.88
2022-12-22T10:36:51.977Z,150717.19
2022-12-22T10:39:27.106Z,150752.56
2022-12-22T10:41:59.298Z,150758.91
2022-12-22T10:44:34.136Z,150746.25
2022-12-22T10:47:17.127Z,150724.78
2022-12-22T10:49:46.471Z,150739.97
2022-12-22T10:52:29.169Z,150736.13
2022-12-22T10:55:15.657Z,150745.00
2022-12-22T10:57:41.561Z,150717.19
2022-12-22T11:00:30.873Z,150704.59
2022-12-22T11:02:59.364Z,150705.84
2022-12-22T11:05:26.038Z,150693.19
2022-12-22T11:07:53.024Z,150722.28
2022-12-22T11:10:33.965Z,150691.94
2022-12-22T11:13:21.716Z,150718.44
2022-12-22T11:15:56.257Z,150710.88
2022-12-22T11:18:43.070Z,150702.03
2022-12-22T11:21:53.868Z,150680.56
2022-12-22T11:24:22.411Z,150712.16
2022-12-22T11:27:18.966Z,150700.75
2022-12-22T11:29:50.475Z,150686.91
2022-12-22T11:32:29.643Z,150660.34
2022-12-22T11:35:12.617Z,150671.75
2022-12-22T11:37:38.358Z,150638.91
2022-12-22T11:40:44.900Z,150637.63
2022-12-22T11:43:20.693Z,150636.38
2022-12-22T11:46:04.325Z,150633.84
2022-12-22T11:49:08.491Z,150612.34
2022-12-22T11:51:49.453Z,150613.59
2022-12-22T11:54:32.780Z,150606.06
2022-12-22T11:57:33.033Z,150640.16
2022-12-22T12:00:08.202Z,150608.56
2022-12-22T12:02:40.129Z,150618.69
2022-12-22T12:05:08.953Z,150570.69
2022-12-22T12:07:41.378Z,150593.41
2022-12-22T12:10:24.343Z,150588.38
2022-12-22T12:13:09.833Z,150621.22
2022-12-22T12:15:43.587Z,150712.16
2022-12-22T12:18:38.499Z,150738.66
2022-12-22T12:21:29.626Z,150780.38
2022-12-22T12:24:36.136Z,150924.50
2022-12-22T12:27:09.404Z,151092.63
2022-12-22T12:29:40.998Z,151193.84
2022-12-22T12:32:22.463Z,151100.25
2022-12-22T12:34:52.120Z,151201.41
2022-12-22T12:37:36.402Z,151265.94
2022-12-22T12:40:29.427Z,151231.78
2022-12-22T12:42:57.449Z,151044.56
2022-12-22T12:45:41.413Z,150962.41
2022-12-22T12:48:37.332Z,150968.72
2022-12-22T12:51:41.775Z,150982.63
2022-12-22T12:54:28.633Z,150994.03
2022-12-22T12:57:06.588Z,150957.38
2022-12-22T12:59:41.803Z,150827.09
2022-12-22T13:02:26.325Z,150813.22
2022-12-22T13:05:02.984Z,150846.06
2022-12-22T13:08:06.050Z,150824.56
2022-12-22T13:10:34.627Z,150705.84
2022-12-22T13:13:00.502Z,150698.25
2022-12-22T13:15:33.952Z,150743.75
2022-12-22T13:18:02.009Z,150708.38
2022-12-22T13:20:34.482Z,150704.59
2022-12-22T13:23:03.392Z,150775.28
2022-12-22T13:25:48.959Z,150805.63
2022-12-22T13:28:17.784Z,150781.63
2022-12-22T13:30:56.432Z,150832.19
2022-12-22T13:33:26.314Z,150822.06
2022-12-22T13:35:58.524Z,150818.28
2022-12-22T13:38:36.777Z,150851.13
2022-12-22T13:41:13.376Z,150818.28
2022-12-22T13:43:43.464Z,150784.16
2022-12-22T13:46:10.436Z,150745.00
2022-12-22T13:48:45.636Z,150737.38
2022-12-22T13:51:35.023Z,150741.22
2022-12-22T13:54:12.296Z,150694.47
2022-12-22T13:56:48.998Z,150667.97
2022-12-22T13:59:35.212Z,150686.91
2022-12-22T14:02:08.029Z,150655.31
2022-12-22T14:04:36.524Z,150641.41
2022-12-22T14:07:11.966Z,150601.00
2022-12-22T14:09:43.713Z,150599.75
2022-12-22T14:12:31.914Z,150632.59
2022-12-22T14:15:00.769Z,150589.63
2022-12-22T14:17:39.458Z,150584.59
2022-12-22T14:20:18.765Z,150571.94
2022-12-22T14:22:52.415Z,150559.31
2022-12-22T14:25:22.621Z,150551.75
2022-12-22T14:27:52.420Z,150569.44
2022-12-22T14:30:24.027Z,150537.84
2022-12-22T14:32:55.407Z,150546.72
2022-12-22T14:35:26.630Z,150558.06
2022-12-22T14:37:55.336Z,150553.00
2022-12-22T14:40:29.186Z,150536.59
2022-12-22T14:42:57.175Z,150527.78
2022-12-22T14:45:23.910Z,150540.38
2022-12-22T14:47:51.003Z,150547.97
2022-12-22T14:50:22.789Z,150546.72
2022-12-22T14:53:04.409Z,150536.59
2022-12-22T14:55:42.232Z,150550.50
2022-12-22T14:58:21.025Z,150558.06
2022-12-22T15:00:49.216Z,150537.84
2022-12-22T15:03:36.318Z,150560.63
2022-12-22T15:06:24.580Z,150539.13
2022-12-22T15:08:53.745Z,150498.72
2022-12-22T15:11:23.601Z,150515.16
2022-12-22T15:13:50.939Z,150515.16
2022-12-22T15:16:19.589Z,150517.66
2022-12-22T15:18:46.853Z,150520.19
2022-12-22T15:21:15.381Z,150515.16
2022-12-22T15:23:41.581Z,150496.22
2022-12-22T15:26:07.866Z,150487.34
2022-12-22T15:28:33.811Z,150501.25
2022-12-22T15:31:01.947Z,150496.22
2022-12-22T15:33:29.410Z,150494.94
2022-12-22T15:35:55.442Z,150491.19
2022-12-22T15:38:23.622Z,150473.50
2022-12-22T15:40:50.904Z,150462.13
2022-12-22T15:43:53.923Z,150457.09
2022-12-22T15:46:05.397Z,150429.31
2022-12-22T15:48:33.443Z,150426.78
2022-12-22T15:51:01.693Z,150429.31
2022-12-22T15:53:27.708Z,150445.72
2022-12-22T15:55:55.020Z,150470.97
2022-12-22T15:58:25.502Z,150448.22
2022-12-22T16:00:51.271Z,150463.38
2022-12-22T16:03:18.482Z,150444.47
2022-12-22T16:05:45.018Z,150467.16
2022-12-22T16:08:18.266Z,150430.56
2022-12-22T16:10:46.058Z,150463.38
2022-12-22T16:13:14.773Z,150449.50
2022-12-22T16:15:40.909Z,150472.25
2022-12-22T16:18:07.279Z,150478.53
2022-12-22T16:20:38.716Z,150469.69
2022-12-22T16:23:06.849Z,150470.97
2022-12-22T16:25:37.939Z,150457.09
2022-12-22T16:28:04.962Z,150470.97
2022-12-22T16:30:32.692Z,150431.81
2022-12-22T16:32:59.043Z,150449.50
2022-12-22T16:35:27.064Z,150450.75
2022-12-22T16:37:56.090Z,150463.38
2022-12-22T16:40:22.180Z,150458.34
2022-12-22T16:45:43.694Z,150399.03
2022-12-22T16:48:14.355Z,150415.41
2022-12-22T16:50:44.495Z,150368.75
2022-12-22T16:53:11.368Z,150378.81
2022-12-22T16:55:37.397Z,150388.94
2022-12-22T16:58:12.092Z,150372.53
2022-12-22T17:00:41.426Z,150349.81
2022-12-22T17:03:17.612Z,150371.25
2022-12-22T17:05:47.525Z,150359.88
2022-12-22T17:08:29.601Z,150356.09
2022-12-22T17:10:58.421Z,150368.75
2022-12-22T17:13:25.249Z,150391.44
2022-12-22T17:15:51.287Z,150395.22
2022-12-22T17:18:19.671Z,150358.63
2022-12-22T17:20:48.166Z,150346.03
2022-12-22T17:23:38.683Z,150357.38
2022-12-22T17:26:09.997Z,150376.28
2022-12-22T17:28:36.957Z,150371.25
2022-12-22T17:31:02.824Z,150380.06
2022-12-22T17:33:28.751Z,150406.59
2022-12-22T17:35:56.001Z,150386.41
2022-12-22T17:38:25.265Z,150399.03
2022-12-22T17:40:51.567Z,150375.03
2022-12-22T17:43:19.119Z,150386.41
2022-12-22T17:45:46.061Z,150412.88
2022-12-22T17:48:15.984Z,150420.50
2022-12-22T17:50:45.397Z,150415.41
2022-12-22T17:53:16.251Z,150429.31
2022-12-22T17:58:27.988Z,150412.88
2022-12-22T18:00:54.019Z,150406.59
2022-12-22T18:03:20.226Z,150426.78
2022-12-22T18:05:47.794Z,150420.50
2022-12-22T18:08:18.261Z,150412.88
2022-12-22T18:10:44.990Z,150405.34
2022-12-22T18:13:20.615Z,150419.22
2022-12-22T18:15:46.772Z,150405.34
2022-12-22T18:18:14.697Z,150414.16
2022-12-22T18:20:41.404Z,150431.81
2022-12-22T18:23:31.731Z,150417.97
2022-12-22T18:25:58.155Z,150417.97
2022-12-22T18:28:23.987Z,150416.72
2022-12-22T18:30:50.430Z,150426.78
2022-12-22T18:33:17.114Z,150448.22
2022-12-22T18:35:43.313Z,150449.50
2022-12-22T18:38:24.095Z,150453.31
2022-12-22T18:40:50.082Z,150477.28
2022-12-22T18:43:15.947Z,150474.75
2022-12-22T18:45:41.848Z,150473.50
2022-12-22T18:48:08.270Z,150476.03
2022-12-22T18:50:34.335Z,150474.75
2022-12-22T18:53:05.489Z,150487.34
2022-12-22T18:55:32.602Z,150488.66
2022-12-22T18:58:00.010Z,150487.34
2022-12-22T19:00:30.036Z,150507.59
2022-12-22T19:03:01.366Z,150498.72
2022-12-22T19:05:31.873Z,150510.09
2022-12-22T19:07:59.000Z,150506.34
2022-12-22T19:10:49.696Z,150535.34
2022-12-22T19:13:25.097Z,150511.38
2022-12-22T19:15:51.451Z,150502.50
2022-12-22T19:18:26.014Z,150511.38
2022-12-22T19:20:54.530Z,150535.34
2022-12-22T19:23:22.427Z,150532.81
2022-12-22T19:25:52.330Z,150521.44
2022-12-22T19:28:26.666Z,150520.19
2022-12-22T19:30:53.227Z,150534.06
2022-12-22T19:33:33.045Z,150532.81
2022-12-22T19:36:00.504Z,150531.56
2022-12-22T19:38:27.445Z,150526.53
2022-12-22T19:40:57.183Z,150507.59
2022-12-22T19:43:23.304Z,150516.41
2022-12-22T19:45:53.255Z,150498.72
2022-12-22T19:48:24.809Z,150496.22
2022-12-22T19:50:52.186Z,150521.44
2022-12-22T19:53:19.073Z,150554.28
2022-12-22T19:55:54.406Z,150535.34
2022-12-22T19:58:36.614Z,150537.84
2022-12-22T20:01:03.781Z,150532.81
2022-12-22T20:03:30.215Z,150530.31
2022-12-22T20:05:56.227Z,150505.03
2022-12-22T20:08:22.140Z,150505.03
2022-12-22T20:10:52.971Z,150541.63
2022-12-22T20:13:23.185Z,150535.34
2022-12-22T20:15:49.363Z,150537.84
2022-12-22T20:18:19.482Z,150535.34
2022-12-22T20:20:54.085Z,150539.13
2022-12-22T20:23:24.007Z,150536.59
2022-12-22T20:25:56.279Z,150531.56
2022-12-22T20:28:25.431Z,150523.97
2022-12-22T20:30:52.345Z,150510.09
2022-12-22T20:33:20.696Z,150536.59
2022-12-22T20:35:48.561Z,150554.28
2022-12-22T20:38:26.430Z,150577.00
2022-12-22T20:40:53.319Z,150582.06
2022-12-22T20:43:21.870Z,150571.94
2022-12-22T20:45:51.242Z,150598.50
2022-12-22T20:48:22.730Z,150570.69
2022-12-22T20:50:48.828Z,150592.16
2022-12-22T20:53:18.025Z,150613.59
2022-12-22T20:55:44.481Z,150602.28
2022-12-22T20:58:22.684Z,150575.72
2022-12-22T21:00:53.316Z,150611.09
2022-12-22T21:03:19.500Z,150607.31
2022-12-22T21:05:46.960Z,150592.16
2022-12-22T21:08:20.955Z,150611.09
2022-12-22T21:10:48.009Z,150617.44
2022-12-22T21:13:15.571Z,150613.59
2022-12-22T21:15:43.625Z,150631.28
2022-12-22T21:18:21.540Z,150637.63
2022-12-22T21:20:49.482Z,150616.16
2022-12-22T21:23:18.859Z,150616.16
2022-12-22T21:25:49.281Z,150627.50
2022-12-22T21:28:25.725Z,150618.69
2022-12-22T21:30:52.061Z,150640.16
2022-12-22T21:33:18.096Z,150631.28
2022-12-22T21:35:44.212Z,150636.38
2022-12-22T21:38:18.240Z,150613.59
2022-12-22T21:40:47.163Z,150609.81
2022-12-22T21:43:14.566Z,150645.19
2022-12-22T21:45:43.074Z,150628.75
2022-12-22T21:48:15.050Z,150637.63
2022-12-22T21:50:41.138Z,150631.28
2022-12-22T21:53:07.632Z,150638.91
2022-12-22T21:55:38.127Z,150618.69
2022-12-22T21:58:06.260Z,150618.69
2022-12-22T22:00:33.716Z,150619.94
2022-12-22T22:03:02.393Z,150613.59
2022-12-22T22:05:32.913Z,150619.94
2022-12-22T22:07:59.676Z,150621.22
2022-12-22T22:10:35.116Z,150618.69
2022-12-22T22:13:01.783Z,150613.59
2022-12-22T22:15:29.438Z,150637.63
2022-12-22T22:17:58.611Z,150650.28
2022-12-22T22:20:29.952Z,150638.91
2022-12-22T22:22:57.217Z,150648.97
2022-12-22T22:25:23.527Z,150640.16
2022-12-22T22:27:50.065Z,150637.63
2022-12-22T22:30:18.683Z,150636.38
2022-12-22T22:32:45.045Z,150621.22
2022-12-22T22:35:11.661Z,150631.28
2022-12-22T22:37:39.245Z,150618.69
2022-12-22T22:40:09.177Z,150632.59
2022-12-22T22:42:36.234Z,150636.38
2022-12-22T22:45:02.912Z,150631.28
2022-12-22T22:47:28.741Z,150638.91
2022-12-22T22:49:54.568Z,150628.75
2022-12-22T22:52:20.415Z,150630.03
2022-12-22T22:54:46.239Z,150656.56
2022-12-22T22:57:13.132Z,150643.94
2022-12-22T22:59:39.446Z,150637.63
2022-12-22T23:02:05.436Z,150608.56
2022-12-22T23:04:31.869Z,150612.34
2022-12-22T23:06:57.794Z,150637.63
2022-12-22T23:09:23.688Z,150631.28
2022-12-22T23:11:53.140Z,150643.94
2022-12-22T23:14:20.213Z,150636.38
2022-12-22T23:16:48.133Z,150647.72
2022-12-22T23:19:14.431Z,150642.66
2022-12-22T23:21:40.210Z,150651.53
2022-12-22T23:24:06.775Z,150632.59
2022-12-22T23:26:32.732Z,150638.91
2022-12-22T23:29:03.311Z,150626.25
2022-12-22T23:31:31.927Z,150628.75
2022-12-22T23:33:57.900Z,150625.00
2022-12-22T23:36:23.993Z,150616.16
2022-12-22T23:38:51.049Z,150633.84
2022-12-22T23:41:17.567Z,150625.00
2022-12-22T23:43:43.466Z,150628.75
2022-12-22T23:46:12.201Z,150622.47
2022-12-22T23:48:39.471Z,150618.69
2022-12-22T23:51:06.711Z,150641.41
2022-12-22T23:53:33.416Z,150611.09
2022-12-22T23:55:59.223Z,150619.94
2022-12-22T23:58:25.097Z,150623.72
